createdAt,value
2019-05-17T00:07:30.859Z,81.40
2019-05-17T00:16:50.210Z,82.00
2019-05-17T00:20:58.864Z,82.40
2019-05-17T00:25:56.552Z,81.90
2019-05-17T00:30:53.962Z,80.70
2019-05-17T00:41:07.423Z,83.30
2019-05-17T00:46:06.676Z,81.70
2019-05-17T00:56:20.101Z,81.60
2019-05-17T01:06:33.636Z,81.10
2019-05-17T01:15:52.315Z,81.50
2019-05-17T01:26:07.490Z,81.90
2019-05-17T01:31:06.650Z,81.40
2019-05-17T01:36:06.597Z,81.50
2019-05-17T01:41:03.983Z,81.70
2019-05-17T01:51:17.737Z,83.00
2019-05-17T02:01:31.259Z,83.60
2019-05-17T02:06:28.609Z,83.50
2019-05-17T02:15:57.015Z,83.40
2019-05-17T02:20:56.882Z,83.40
2019-05-17T02:25:54.275Z,83.10
2019-05-17T02:36:07.781Z,82.60
2019-05-17T02:41:05.133Z,81.80
2019-05-17T02:46:03.658Z,81.70
2019-05-17T02:50:44.429Z,81.40
2019-05-17T02:55:43.518Z,81.20
2019-05-17T03:05:57.339Z,81.80
2019-05-17T03:15:16.322Z,82.60
2019-05-17T03:25:32.992Z,81.90
2019-05-17T03:35:46.462Z,83.00
2019-05-17T03:41:07.342Z,82.20
2019-05-17T03:45:45.380Z,83.00
2019-05-17T03:55:59.150Z,82.60
2019-05-17T04:06:13.444Z,82.30
2019-05-17T04:15:32.907Z,82.80
2019-05-17T04:25:47.405Z,83.50
2019-05-17T04:30:44.842Z,84.20
2019-05-17T04:40:58.240Z,84.30
2019-05-17T04:51:13.296Z,83.80
2019-05-17T05:01:27.323Z,83.70
2019-05-17T05:06:24.662Z,83.80
2019-05-17T05:11:23.327Z,83.80
2019-05-17T05:15:44.845Z,83.70
2019-05-17T05:20:43.429Z,83.80
2019-05-17T05:25:43.093Z,83.80
2019-05-17T05:35:57.340Z,83.70
2019-05-17T05:46:11.686Z,87.50
2019-05-17T05:51:13.407Z,83.60
2019-05-17T06:01:25.438Z,81.80
2019-05-17T06:06:22.679Z,80.00
2019-05-17T06:15:59.808Z,81.10
2019-05-17T06:20:57.757Z,80.30
2019-05-17T06:25:55.276Z,79.80
2019-05-17T06:36:09.445Z,79.00
2019-05-17T06:41:06.880Z,77.30
2019-05-17T06:51:22.076Z,78.40
2019-05-17T06:56:19.560Z,78.50
2019-05-17T07:06:33.000Z,77.60
2019-05-17T07:16:10.231Z,73.00
2019-05-17T07:26:24.579Z,74.60
2019-05-17T07:31:23.194Z,74.00
2019-05-17T07:41:36.970Z,74.40
2019-05-17T07:46:34.402Z,74.10
2019-05-17T07:51:32.274Z,73.90
2019-05-17T08:01:46.040Z,72.40
2019-05-17T08:11:59.832Z,73.00
2019-05-17T08:16:59.723Z,71.20
2019-05-17T08:21:02.381Z,68.50
2019-05-17T08:26:00.633Z,67.20
2019-05-17T08:36:20.068Z,69.00
2019-05-17T08:41:13.794Z,70.10
2019-05-17T08:46:11.142Z,70.40
2019-05-17T08:51:10.594Z,69.20
2019-05-17T08:56:09.883Z,68.30
2019-05-17T09:01:06.833Z,68.10
2019-05-17T09:06:04.626Z,66.90
2019-05-17T09:11:02.332Z,66.30
2019-05-17T09:20:21.136Z,65.10
2019-05-17T09:25:21.459Z,63.70
2019-05-17T09:35:33.802Z,61.90
2019-05-17T09:45:47.448Z,61.00
2019-05-17T09:56:00.710Z,61.30
2019-05-17T10:00:40.318Z,59.30
2019-05-17T10:05:40.261Z,59.20
2019-05-17T10:15:53.420Z,57.20
2019-05-17T10:19:56.274Z,54.80
2019-05-17T10:24:53.747Z,53.40
2019-05-17T10:29:51.195Z,51.70
2019-05-17T10:40:04.726Z,52.70
2019-05-17T10:50:20.407Z,51.20
2019-05-17T10:55:19.815Z,49.70
2019-05-17T11:00:19.545Z,48.70
2019-05-17T11:10:32.654Z,45.20
2019-05-17T11:19:51.391Z,46.30
2019-05-17T11:30:05.473Z,43.90
2019-05-17T11:40:19.093Z,48.60
2019-05-17T11:50:32.799Z,43.30
2019-05-17T12:00:46.291Z,39.50
2019-05-17T12:05:43.777Z,41.90
2019-05-17T12:15:56.858Z,42.00
2019-05-17T12:20:25.258Z,44.70
2019-05-17T12:25:22.441Z,43.60
2019-05-17T12:35:34.915Z,42.80
2019-05-17T12:46:00.277Z,44.40
2019-05-17T12:50:47.775Z,41.50
2019-05-17T13:01:01.475Z,42.30
2019-05-17T13:11:14.983Z,42.80
2019-05-17T13:20:35.441Z,43.10
2019-05-17T13:25:33.174Z,42.80
2019-05-17T13:30:30.521Z,42.30
2019-05-17T13:40:43.549Z,42.10
2019-05-17T13:44:46.403Z,42.60
2019-05-17T13:49:43.817Z,43.10
2019-05-17T13:59:57.172Z,43.90
2019-05-17T14:10:26.353Z,41.80
2019-05-17T14:20:25.668Z,40.90
2019-05-17T14:24:28.528Z,40.90
2019-05-17T14:29:25.894Z,38.40
2019-05-17T14:39:39.756Z,40.80
2019-05-17T14:44:37.384Z,41.40
2019-05-17T14:49:39.225Z,41.20
2019-05-17T14:59:50.538Z,42.80
2019-05-17T15:10:04.050Z,41.20
2019-05-17T15:15:01.505Z,40.00
2019-05-17T15:24:20.506Z,39.50
2019-05-17T15:34:34.206Z,40.60
2019-05-17T15:44:48.212Z,39.90
2019-05-17T15:49:46.025Z,40.30
2019-05-17T16:00:00.011Z,41.20
2019-05-17T16:10:13.368Z,42.70
2019-05-17T16:20:27.373Z,41.70
2019-05-17T16:24:30.401Z,42.00
2019-05-17T16:29:27.883Z,42.60
2019-05-17T16:39:41.631Z,43.20
2019-05-17T16:49:55.840Z,43.00
2019-05-17T17:05:01.532Z,42.70
2019-05-17T17:09:59.412Z,43.10
2019-05-17T17:20:13.298Z,42.80
2019-05-17T17:24:16.183Z,43.00
2019-05-17T17:34:30.095Z,44.00
2019-05-17T17:39:27.726Z,44.70
2019-05-17T17:44:25.248Z,43.80
2019-05-17T17:49:22.914Z,43.80
2019-05-17T17:59:36.513Z,50.30
2019-05-17T18:09:50.614Z,56.40
2019-05-17T18:20:06.467Z,59.20
2019-05-17T18:24:09.496Z,59.30
2019-05-17T18:29:08.098Z,59.70
2019-05-17T18:34:06.348Z,60.10
2019-05-17T18:44:27.031Z,60.70
2019-05-17T18:49:24.712Z,61.30
2019-05-17T18:59:20.854Z,61.80
2019-05-17T19:04:18.373Z,62.00
2019-05-17T19:14:42.465Z,62.10
2019-05-17T19:23:59.502Z,62.70
2019-05-17T19:28:57.153Z,63.00
2019-05-17T19:33:55.194Z,63.50
2019-05-17T19:44:09.101Z,63.60
2019-05-17T19:48:48.710Z,63.60
2019-05-17T19:53:46.499Z,64.60
2019-05-17T20:04:00.159Z,64.80
2019-05-17T20:14:13.945Z,65.20
2019-05-17T20:23:32.727Z,65.80
2019-05-17T20:28:30.530Z,65.40
2019-05-17T20:33:28.408Z,65.40
2019-05-17T20:43:42.299Z,66.20
2019-05-17T20:48:21.551Z,66.90
2019-05-17T20:53:19.560Z,67.80
2019-05-17T21:03:32.818Z,66.80
2019-05-17T21:08:44.826Z,67.10
2019-05-17T21:13:29.229Z,67.80
2019-05-17T21:22:47.247Z,67.30
2019-05-17T21:27:45.408Z,69.10
2019-05-17T21:32:42.963Z,68.90
2019-05-17T21:42:56.648Z,67.80
2019-05-17T21:47:36.117Z,68.40
2019-05-17T21:52:33.635Z,68.80
2019-05-17T22:02:47.335Z,68.10
2019-05-17T22:13:01.403Z,69.20
2019-05-17T22:22:39.694Z,69.20
2019-05-17T22:27:37.447Z,69.10
2019-05-17T22:37:51.352Z,69.90
2019-05-17T22:42:49.047Z,70.10
2019-05-17T22:53:02.239Z,70.40
2019-05-17T23:03:16.103Z,70.40
2019-05-17T23:13:29.750Z,70.90
2019-05-17T23:18:28.496Z,72.30
2019-05-17T23:22:52.474Z,71.70
2019-05-17T23:26:57.966Z,71.10
2019-05-17T23:31:55.626Z,71.60
2019-05-17T23:42:08.929Z,71.70
2019-05-17T23:52:21.384Z,74.40
